createdAt,value
2018-06-20T00:00:20.089Z,0.00
2018-06-20T00:01:20.347Z,0.00
2018-06-20T00:02:20.566Z,0.00
2018-06-20T00:03:20.811Z,0.00
2018-06-20T00:04:21.083Z,0.00
2018-06-20T00:05:21.285Z,0.00
2018-06-20T00:06:21.541Z,0.00
2018-06-20T00:07:21.823Z,0.00
2018-06-20T00:08:22.023Z,0.00
2018-06-20T00:09:22.265Z,0.00
2018-06-20T00:10:22.500Z,0.00
2018-06-20T00:11:22.768Z,0.00
2018-06-20T00:12:23.005Z,0.00
2018-06-20T00:13:23.256Z,0.00
2018-06-20T00:14:23.522Z,0.00
2018-06-20T00:15:23.738Z,0.00
2018-06-20T00:16:24.012Z,0.00
2018-06-20T00:17:24.235Z,0.00
2018-06-20T00:18:24.488Z,0.00
2018-06-20T00:19:24.686Z,0.00
2018-06-20T00:20:24.915Z,0.00
2018-06-20T00:21:25.184Z,0.00
2018-06-20T00:22:25.409Z,0.00
2018-06-20T00:23:25.628Z,0.00
2018-06-20T00:24:25.875Z,0.00
2018-06-20T00:25:26.113Z,0.00
2018-06-20T00:26:26.364Z,0.00
2018-06-20T00:27:26.615Z,0.00
2018-06-20T00:28:35.493Z,0.00
2018-06-20T00:29:27.275Z,0.00
2018-06-20T00:30:27.474Z,0.00
2018-06-20T00:31:27.739Z,0.00
2018-06-20T00:32:27.952Z,0.00
2018-06-20T00:33:28.183Z,0.00
2018-06-20T00:34:28.457Z,0.00
2018-06-20T00:35:28.674Z,0.00
2018-06-20T00:36:28.936Z,0.00
2018-06-20T00:37:29.148Z,0.00
2018-06-20T00:38:29.389Z,0.00
2018-06-20T00:39:29.619Z,0.00
2018-06-20T00:40:29.868Z,0.00
2018-06-20T00:41:30.113Z,0.00
2018-06-20T00:42:30.370Z,0.00
2018-06-20T00:43:30.602Z,0.00
2018-06-20T00:44:30.846Z,0.00
2018-06-20T00:45:31.078Z,0.00
2018-06-20T00:46:31.331Z,0.00
2018-06-20T00:47:31.560Z,0.00
2018-06-20T00:48:31.822Z,0.00
2018-06-20T00:49:32.033Z,0.00
2018-06-20T00:50:32.275Z,0.00
2018-06-20T00:51:32.508Z,0.00
2018-06-20T00:52:32.747Z,0.00
2018-06-20T00:53:32.998Z,0.00
2018-06-20T00:54:33.234Z,0.00
2018-06-20T00:55:33.470Z,0.00
2018-06-20T00:56:33.724Z,0.00
2018-06-20T00:57:33.952Z,0.00
2018-06-20T00:58:34.183Z,0.00
2018-06-20T00:59:34.450Z,0.00
2018-06-20T01:00:34.660Z,0.00
2018-06-20T01:01:34.892Z,0.00
2018-06-20T01:02:35.125Z,0.00
2018-06-20T01:03:35.369Z,0.00
2018-06-20T01:04:35.620Z,0.00
2018-06-20T01:05:35.851Z,0.00
2018-06-20T01:06:36.091Z,0.00
2018-06-20T01:07:36.325Z,0.00
2018-06-20T01:08:36.599Z,0.00
2018-06-20T01:09:36.820Z,0.00
2018-06-20T01:10:37.057Z,0.00
2018-06-20T01:11:37.335Z,0.00
2018-06-20T01:12:37.528Z,0.00
2018-06-20T01:13:37.771Z,0.00
2018-06-20T01:14:38.005Z,0.00
2018-06-20T01:15:38.265Z,0.00
2018-06-20T01:16:38.484Z,0.00
2018-06-20T01:17:38.728Z,0.00
2018-06-20T01:18:38.955Z,0.00
2018-06-20T01:19:39.194Z,0.00
2018-06-20T01:20:39.436Z,0.00
2018-06-20T01:21:39.665Z,0.00
2018-06-20T01:22:39.920Z,0.00
2018-06-20T01:23:40.162Z,0.00
2018-06-20T01:24:40.412Z,0.00
2018-06-20T01:25:40.647Z,0.00
2018-06-20T01:26:40.884Z,0.00
2018-06-20T01:27:41.127Z,0.00
2018-06-20T01:28:41.358Z,0.00
2018-06-20T01:29:41.620Z,0.00
2018-06-20T01:30:41.832Z,0.00
2018-06-20T01:31:42.076Z,0.00
2018-06-20T01:32:42.307Z,0.00
2018-06-20T01:33:42.565Z,0.00
2018-06-20T01:34:42.803Z,0.00
2018-06-20T01:35:43.043Z,0.00
2018-06-20T01:36:43.285Z,0.00
2018-06-20T01:37:43.528Z,0.00
2018-06-20T01:38:43.802Z,0.00
2018-06-20T01:39:44.013Z,0.00
2018-06-20T01:40:44.259Z,0.00
2018-06-20T01:41:44.492Z,0.00
2018-06-20T01:42:44.736Z,0.00
2018-06-20T01:43:44.955Z,0.00
2018-06-20T01:44:45.209Z,0.00
2018-06-20T01:45:45.440Z,0.00
2018-06-20T01:46:45.690Z,0.00
2018-06-20T01:47:45.919Z,0.00
2018-06-20T01:48:46.162Z,0.00
2018-06-20T01:49:46.404Z,0.00
2018-06-20T01:50:46.645Z,0.00
2018-06-20T01:51:46.874Z,0.00
2018-06-20T01:52:47.119Z,0.00
2018-06-20T01:53:47.351Z,0.00
2018-06-20T01:54:47.588Z,0.00
2018-06-20T01:55:47.857Z,0.00
2018-06-20T01:56:48.068Z,0.00
2018-06-20T01:57:48.310Z,0.00
2018-06-20T01:58:48.549Z,0.00
2018-06-20T01:59:48.783Z,0.00
2018-06-20T02:00:49.021Z,0.00
2018-06-20T02:01:49.276Z,0.00
2018-06-20T02:02:49.508Z,0.00
2018-06-20T02:03:49.741Z,0.00
2018-06-20T02:04:49.975Z,0.00
2018-06-20T02:05:50.215Z,0.00
2018-06-20T02:06:50.461Z,0.00
2018-06-20T02:07:50.687Z,0.00
2018-06-20T02:08:50.924Z,0.00
2018-06-20T02:09:51.171Z,0.00
2018-06-20T02:10:51.422Z,0.00
2018-06-20T02:11:51.657Z,0.00
2018-06-20T02:12:51.915Z,0.00
2018-06-20T02:13:52.130Z,0.00
2018-06-20T02:14:52.372Z,0.00
2018-06-20T02:15:52.605Z,0.00
2018-06-20T02:16:52.844Z,0.00
2018-06-20T02:17:53.086Z,0.00
2018-06-20T02:18:53.331Z,0.00
2018-06-20T02:19:53.575Z,0.00
2018-06-20T02:20:53.814Z,0.00
2018-06-20T02:21:54.056Z,0.00
2018-06-20T02:22:54.294Z,0.00
2018-06-20T02:23:54.533Z,0.00
2018-06-20T02:24:54.760Z,0.00
2018-06-20T02:25:55.004Z,0.00
2018-06-20T02:26:55.242Z,0.00
2018-06-20T02:27:55.486Z,0.00
2018-06-20T02:28:55.730Z,0.00
2018-06-20T02:29:55.971Z,0.00
2018-06-20T02:30:56.214Z,0.00
2018-06-20T02:31:56.443Z,0.00
2018-06-20T02:32:56.685Z,0.00
2018-06-20T02:33:56.912Z,0.00
2018-06-20T02:34:57.161Z,0.00
2018-06-20T02:35:57.388Z,0.00
2018-06-20T02:36:57.626Z,0.00
2018-06-20T02:37:57.873Z,0.00
2018-06-20T02:38:58.111Z,0.00
2018-06-20T02:39:58.347Z,0.00
2018-06-20T02:40:58.595Z,0.00
2018-06-20T02:41:58.831Z,0.00
2018-06-20T02:42:59.062Z,0.00
2018-06-20T02:43:59.297Z,0.00
2018-06-20T02:44:59.545Z,0.00
2018-06-20T02:45:59.778Z,0.00
2018-06-20T02:47:00.021Z,0.00
2018-06-20T02:48:00.255Z,0.00
2018-06-20T02:49:00.491Z,0.00
2018-06-20T02:50:00.733Z,0.00
2018-06-20T02:51:00.971Z,0.00
2018-06-20T02:52:01.208Z,0.00
2018-06-20T02:53:01.433Z,0.00
2018-06-20T02:54:01.671Z,0.00
2018-06-20T02:55:01.910Z,0.00
2018-06-20T02:56:02.147Z,0.00
2018-06-20T02:57:02.392Z,0.00
2018-06-20T02:58:02.627Z,0.00
2018-06-20T02:59:02.875Z,0.00
2018-06-20T03:00:03.111Z,0.00
2018-06-20T03:01:03.347Z,0.00
2018-06-20T03:02:03.630Z,0.00
2018-06-20T03:03:03.877Z,0.00
2018-06-20T03:04:04.115Z,0.00
2018-06-20T03:05:04.356Z,0.00
2018-06-20T03:06:04.600Z,0.00
2018-06-20T03:07:04.834Z,0.00
2018-06-20T03:08:05.071Z,0.00
2018-06-20T03:09:05.309Z,0.00
2018-06-20T03:10:05.554Z,0.00
2018-06-20T03:11:05.797Z,0.00
2018-06-20T03:12:06.036Z,0.00
2018-06-20T03:13:06.266Z,0.00
2018-06-20T03:14:06.493Z,0.00
2018-06-20T03:15:06.733Z,0.00
2018-06-20T03:16:06.973Z,0.00
2018-06-20T03:17:07.222Z,0.00
2018-06-20T03:18:07.442Z,0.00
2018-06-20T03:19:07.671Z,0.00
2018-06-20T03:20:07.944Z,0.00
2018-06-20T03:21:08.165Z,0.00
2018-06-20T03:22:08.400Z,0.00
2018-06-20T03:23:08.620Z,0.00
2018-06-20T03:24:08.865Z,0.00
2018-06-20T03:25:09.104Z,0.00
2018-06-20T03:26:09.350Z,0.00
2018-06-20T03:27:09.586Z,0.00
2018-06-20T03:28:09.826Z,0.00
2018-06-20T03:29:10.072Z,0.00
2018-06-20T03:30:10.309Z,0.00
2018-06-20T03:31:10.547Z,0.00
2018-06-20T03:32:10.788Z,0.00
2018-06-20T03:33:11.032Z,0.00
2018-06-20T03:34:11.313Z,0.00
2018-06-20T03:35:11.519Z,0.00
2018-06-20T03:36:11.773Z,0.00
2018-06-20T03:37:12.017Z,0.00
2018-06-20T03:38:12.250Z,0.00
2018-06-20T03:39:12.485Z,0.00
2018-06-20T03:40:12.722Z,0.00
2018-06-20T03:41:12.953Z,0.00
2018-06-20T03:42:13.190Z,0.00
2018-06-20T03:43:13.415Z,0.00
2018-06-20T03:44:13.645Z,0.00
2018-06-20T03:45:13.889Z,0.00
2018-06-20T03:46:14.130Z,0.00
2018-06-20T03:47:14.372Z,0.00
2018-06-20T03:48:14.616Z,0.00
2018-06-20T03:49:14.853Z,0.00
2018-06-20T03:50:15.092Z,0.00
2018-06-20T03:51:15.327Z,0.00
2018-06-20T03:52:15.569Z,0.00
2018-06-20T03:53:15.806Z,0.00
2018-06-20T03:54:16.044Z,0.00
2018-06-20T03:55:16.299Z,0.00
2018-06-20T03:56:16.531Z,0.00
2018-06-20T03:57:16.782Z,0.00
2018-06-20T03:58:17.006Z,0.00
2018-06-20T03:59:17.272Z,0.00
2018-06-20T04:00:17.494Z,0.00
2018-06-20T04:01:17.715Z,0.00
2018-06-20T04:02:17.982Z,0.00
2018-06-20T04:03:18.196Z,0.00
2018-06-20T04:04:18.434Z,0.00
2018-06-20T04:05:18.670Z,0.00
2018-06-20T04:06:18.911Z,0.00
2018-06-20T04:07:19.160Z,0.00
2018-06-20T04:08:19.392Z,0.00
2018-06-20T04:09:19.633Z,0.00
2018-06-20T04:10:19.906Z,0.00
2018-06-20T04:11:20.126Z,0.00
2018-06-20T04:12:20.360Z,0.00
2018-06-20T04:13:20.583Z,0.00
2018-06-20T04:14:20.843Z,0.00
2018-06-20T04:15:21.056Z,0.00
2018-06-20T04:16:30.501Z,0.00
2018-06-20T04:17:31.670Z,0.00
2018-06-20T04:18:22.107Z,0.00
2018-06-20T04:19:22.279Z,0.00
2018-06-20T04:20:22.492Z,0.00
2018-06-20T04:21:22.738Z,0.00
2018-06-20T04:22:22.977Z,0.00
2018-06-20T04:23:23.217Z,0.00
2018-06-20T04:24:23.454Z,0.00
2018-06-20T04:25:23.682Z,0.00
2018-06-20T04:26:23.934Z,0.00
2018-06-20T04:27:24.194Z,1.34
2018-06-20T04:28:24.408Z,2.58
2018-06-20T04:29:24.645Z,2.86
2018-06-20T04:30:24.879Z,3.82
2018-06-20T04:31:25.118Z,5.16
2018-06-20T04:32:25.397Z,10.71
2018-06-20T04:33:35.573Z,15.20
2018-06-20T04:34:26.142Z,23.13
2018-06-20T04:35:36.553Z,30.49
2018-06-20T04:37:59.993Z,35.57
2018-06-20T04:38:59.768Z,36.99
2018-06-20T04:39:59.933Z,40.36
2018-06-20T04:41:00.171Z,43.40
2018-06-20T04:42:00.415Z,47.06
2018-06-20T04:43:00.666Z,61.41
2018-06-20T04:44:00.926Z,63.60
2018-06-20T04:45:01.159Z,74.51
2018-06-20T04:46:01.378Z,76.81
2018-06-20T04:47:01.606Z,75.76
2018-06-20T04:48:01.852Z,67.14
2018-06-20T04:49:02.097Z,66.44
2018-06-20T04:50:02.329Z,66.25
2018-06-20T04:51:02.581Z,66.54
2018-06-20T04:52:12.865Z,66.44
2018-06-20T04:53:13.203Z,63.96
2018-06-20T04:54:03.522Z,79.35
2018-06-20T04:55:03.718Z,77.25
2018-06-20T04:56:03.940Z,79.68
2018-06-20T04:57:04.165Z,85.22
2018-06-20T04:58:04.411Z,79.00
2018-06-20T04:59:04.672Z,75.37
2018-06-20T05:00:04.886Z,70.87
2018-06-20T05:01:05.123Z,71.55
2018-06-20T05:02:05.360Z,75.37
2018-06-20T05:03:05.596Z,74.04
2018-06-20T05:04:05.859Z,74.90
2018-06-20T05:05:06.074Z,78.19
2018-06-20T05:06:06.315Z,73.59
2018-06-20T05:07:06.584Z,71.58
2018-06-20T05:08:06.801Z,72.92
2018-06-20T05:09:07.035Z,68.90
2018-06-20T05:10:07.292Z,69.76
2018-06-20T05:11:07.532Z,63.64
2018-06-20T05:12:07.766Z,63.86
2018-06-20T05:13:08.003Z,67.98
2018-06-20T05:14:08.236Z,70.76
2018-06-20T05:15:08.489Z,70.47
2018-06-20T05:16:08.705Z,72.29
2018-06-20T05:17:08.966Z,71.33
2018-06-20T05:18:09.199Z,70.85
2018-06-20T05:19:09.442Z,73.44
2018-06-20T05:20:09.682Z,72.38
2018-06-20T05:21:09.920Z,72.99
2018-06-20T05:22:10.157Z,72.13
2018-06-20T05:23:10.395Z,72.52
2018-06-20T05:24:10.659Z,72.23
2018-06-20T05:25:10.920Z,71.56
2018-06-20T05:26:11.156Z,71.75
2018-06-20T05:27:11.392Z,73.09
2018-06-20T05:28:11.629Z,74.91
2018-06-20T05:29:11.894Z,74.27
2018-06-20T05:30:12.150Z,73.03
2018-06-20T05:31:12.388Z,75.10
2018-06-20T05:32:12.638Z,74.18
2018-06-20T05:33:12.869Z,76.77
2018-06-20T05:34:13.120Z,75.52
2018-06-20T05:35:13.360Z,80.12
2018-06-20T05:36:13.603Z,81.66
2018-06-20T05:37:13.843Z,80.51
2018-06-20T05:38:14.094Z,81.75
2018-06-20T05:39:14.321Z,80.89
2018-06-20T05:40:14.557Z,81.56
2018-06-20T05:41:14.802Z,81.60
2018-06-20T05:42:15.037Z,84.38
2018-06-20T05:43:15.277Z,85.05
2018-06-20T05:44:15.521Z,86.58
2018-06-20T05:45:15.763Z,86.44
2018-06-20T05:46:16.005Z,89.79
2018-06-20T05:47:16.249Z,92.29
2018-06-20T05:48:16.493Z,91.52
2018-06-20T05:49:16.746Z,92.19
2018-06-20T05:50:16.983Z,91.72
2018-06-20T05:51:17.224Z,92.86
2018-06-20T05:52:17.462Z,93.54
2018-06-20T05:53:17.706Z,94.79
2018-06-20T05:54:17.950Z,96.22
2018-06-20T05:55:18.193Z,98.72
2018-06-20T05:56:18.439Z,97.81
2018-06-20T05:57:18.684Z,98.19
2018-06-20T05:58:18.925Z,99.99
2018-06-20T05:59:19.169Z,99.99
2018-06-20T06:00:19.416Z,99.99
2018-06-20T06:01:19.655Z,99.99
2018-06-20T06:02:19.898Z,99.99
2018-06-20T06:03:20.142Z,99.99
2018-06-20T06:04:20.387Z,99.99
2018-06-20T06:05:20.631Z,99.99
2018-06-20T06:06:20.876Z,99.99
2018-06-20T06:07:21.121Z,99.99
2018-06-20T06:08:21.363Z,99.99
2018-06-20T06:09:21.610Z,99.99
2018-06-20T06:10:21.851Z,99.99
2018-06-20T06:11:22.098Z,99.99
2018-06-20T06:12:22.340Z,99.99
2018-06-20T06:13:22.586Z,99.99
2018-06-20T06:14:22.831Z,99.99
2018-06-20T06:15:23.088Z,99.99
2018-06-20T06:16:23.321Z,99.99
2018-06-20T06:17:23.566Z,99.99
2018-06-20T06:18:23.811Z,99.99
2018-06-20T06:19:24.054Z,99.99
2018-06-20T06:20:24.299Z,99.99
2018-06-20T06:21:24.545Z,99.99
2018-06-20T06:22:24.789Z,99.99
2018-06-20T06:23:25.036Z,99.99
2018-06-20T06:24:25.282Z,99.99
2018-06-20T06:25:25.526Z,99.99
2018-06-20T06:26:25.771Z,99.99
2018-06-20T06:27:26.019Z,99.99
2018-06-20T06:28:26.262Z,99.99
2018-06-20T06:29:26.508Z,99.99
2018-06-20T06:30:26.755Z,99.99
2018-06-20T06:31:26.996Z,99.99
2018-06-20T06:32:27.241Z,99.99
2018-06-20T06:33:27.478Z,99.99
2018-06-20T06:34:27.725Z,99.99
2018-06-20T06:35:27.971Z,99.99
2018-06-20T06:36:28.220Z,99.99
2018-06-20T06:37:28.458Z,99.99
2018-06-20T06:38:28.706Z,99.99
2018-06-20T06:39:28.948Z,99.99
2018-06-20T06:40:29.195Z,99.99
2018-06-20T06:41:29.440Z,99.99
2018-06-20T06:42:29.685Z,99.99
2018-06-20T06:43:29.930Z,99.99
2018-06-20T06:44:30.176Z,99.99
2018-06-20T06:45:30.422Z,99.99
2018-06-20T06:46:30.666Z,99.99
2018-06-20T06:47:30.913Z,99.99
2018-06-20T06:48:31.158Z,99.99
2018-06-20T06:49:31.407Z,99.99
2018-06-20T06:50:31.653Z,99.99
2018-06-20T06:51:31.892Z,99.99
2018-06-20T06:52:32.141Z,99.99
2018-06-20T06:53:32.383Z,99.99
2018-06-20T06:54:32.629Z,99.99
2018-06-20T06:55:32.876Z,99.99
2018-06-20T06:56:33.128Z,99.99
2018-06-20T06:57:33.367Z,99.99
2018-06-20T06:58:33.614Z,99.99
2018-06-20T06:59:33.862Z,99.99
2018-06-20T07:00:34.112Z,99.99
2018-06-20T07:01:34.353Z,99.99
2018-06-20T07:02:34.654Z,99.99
2018-06-20T07:03:34.842Z,99.99
2018-06-20T07:04:35.087Z,99.99
2018-06-20T07:05:35.333Z,99.99
2018-06-20T07:06:35.578Z,99.99
2018-06-20T07:07:35.827Z,99.99
2018-06-20T07:08:36.068Z,99.99
2018-06-20T07:09:36.315Z,99.99
2018-06-20T07:10:36.561Z,99.99
2018-06-20T07:11:36.806Z,99.99
2018-06-20T07:12:37.053Z,99.99
2018-06-20T07:13:37.296Z,99.99
2018-06-20T07:14:37.542Z,99.99
2018-06-20T07:15:37.787Z,99.99
2018-06-20T07:16:38.033Z,99.99
2018-06-20T07:17:38.279Z,99.99
2018-06-20T07:18:38.525Z,99.99
2018-06-20T07:19:38.769Z,99.99
2018-06-20T07:20:39.015Z,99.99
2018-06-20T07:21:39.258Z,99.99
2018-06-20T07:22:39.504Z,99.99
2018-06-20T07:23:39.752Z,99.99
2018-06-20T07:24:40.005Z,99.99
2018-06-20T07:25:40.247Z,99.99
2018-06-20T07:26:40.490Z,99.99
2018-06-20T07:27:40.742Z,99.99
2018-06-20T07:28:40.990Z,94.23
2018-06-20T07:29:41.236Z,89.09
2018-06-20T07:30:41.509Z,84.36
2018-06-20T07:31:41.727Z,79.10
2018-06-20T07:32:41.975Z,73.52
2018-06-20T07:33:42.223Z,73.46
2018-06-20T07:34:42.469Z,71.23
2018-06-20T07:35:42.870Z,67.67
2018-06-20T07:36:42.967Z,66.66
2018-06-20T07:37:43.213Z,64.55
2018-06-20T07:38:43.460Z,63.42
2018-06-20T07:39:43.709Z,60.39
2018-06-20T07:40:43.958Z,59.64
2018-06-20T07:41:44.208Z,59.64
2018-06-20T07:42:44.459Z,59.45
2018-06-20T07:43:44.707Z,59.64
2018-06-20T07:44:44.957Z,61.34
2018-06-20T07:45:45.210Z,69.15
2018-06-20T07:46:45.465Z,78.46
2018-06-20T07:47:45.748Z,78.83
2018-06-20T07:48:45.959Z,74.74
2018-06-20T07:49:46.207Z,71.42
2018-06-20T07:50:46.486Z,70.81
2018-06-20T07:51:46.709Z,66.60
2018-06-20T07:52:46.958Z,66.21
2018-06-20T07:53:47.208Z,65.14
2018-06-20T07:54:47.459Z,63.84
2018-06-20T07:55:47.761Z,62.41
2018-06-20T07:56:47.960Z,62.48
2018-06-20T07:57:48.206Z,63.10
2018-06-20T07:58:48.456Z,64.56
2018-06-20T07:59:48.707Z,62.06
2018-06-20T08:00:49.004Z,60.75
2018-06-20T08:01:49.211Z,59.69
2018-06-20T08:02:49.462Z,58.42
2018-06-20T08:03:49.712Z,61.11
2018-06-20T08:04:49.963Z,59.33
2018-06-20T08:05:50.215Z,59.52
2018-06-20T08:06:50.466Z,56.56
2018-06-20T08:07:50.714Z,56.82
2018-06-20T08:08:50.965Z,59.44
2018-06-20T08:09:51.220Z,65.08
2018-06-20T08:10:51.466Z,69.67
2018-06-20T08:11:51.718Z,70.70
2018-06-20T08:12:51.967Z,66.89
2018-06-20T08:13:52.222Z,64.78
2018-06-20T08:14:52.475Z,62.71
2018-06-20T08:15:52.719Z,59.82
2018-06-20T08:16:52.970Z,58.15
2018-06-20T08:17:53.220Z,55.12
2018-06-20T08:18:53.517Z,54.19
2018-06-20T08:19:53.721Z,54.89
2018-06-20T08:20:53.976Z,56.61
2018-06-20T08:21:54.227Z,56.35
2018-06-20T08:22:54.478Z,54.55
2018-06-20T08:23:54.729Z,53.89
2018-06-20T08:24:54.980Z,54.09
2018-06-20T08:25:55.229Z,54.05
2018-06-20T08:26:55.481Z,51.37
2018-06-20T08:27:55.734Z,50.22
2018-06-20T08:28:55.989Z,50.85
2018-06-20T08:29:56.235Z,55.57
2018-06-20T08:30:56.488Z,54.03
2018-06-20T08:31:56.743Z,54.23
2018-06-20T08:32:56.997Z,54.26
2018-06-20T08:33:57.247Z,52.63
2018-06-20T08:34:57.497Z,52.22
2018-06-20T08:35:57.749Z,53.77
2018-06-20T08:36:58.023Z,54.16
2018-06-20T08:37:58.253Z,54.02
2018-06-20T08:38:58.505Z,53.77
2018-06-20T08:39:58.758Z,54.55
2018-06-20T08:40:59.010Z,54.46
2018-06-20T08:41:59.257Z,53.73
2018-06-20T08:42:59.514Z,53.46
2018-06-20T08:43:59.766Z,54.38
2018-06-20T08:45:00.022Z,55.37
2018-06-20T08:46:00.272Z,55.50
2018-06-20T08:47:00.525Z,54.68
2018-06-20T08:48:00.777Z,53.53
2018-06-20T08:49:01.029Z,54.73
2018-06-20T08:50:01.283Z,54.91
2018-06-20T08:51:01.535Z,60.74
2018-06-20T08:52:01.787Z,59.82
2018-06-20T08:53:02.047Z,57.28
2018-06-20T08:54:02.293Z,61.05
2018-06-20T08:55:02.542Z,59.33
2018-06-20T08:56:02.796Z,58.22
2018-06-20T08:57:03.050Z,55.48
2018-06-20T08:58:03.302Z,54.56
2018-06-20T08:59:03.557Z,51.44
2018-06-20T09:00:03.805Z,50.37
2018-06-20T09:01:04.055Z,48.80
2018-06-20T09:02:04.327Z,50.98
2018-06-20T09:03:04.561Z,53.75
2018-06-20T09:04:04.818Z,60.22
2018-06-20T09:05:05.067Z,62.35
2018-06-20T09:06:05.321Z,60.44
2018-06-20T09:07:05.574Z,58.36
2018-06-20T09:08:05.825Z,59.50
2018-06-20T09:09:06.085Z,58.26
2018-06-20T09:10:06.329Z,55.86
2018-06-20T09:11:06.582Z,54.52
2018-06-20T09:12:06.836Z,53.70
2018-06-20T09:13:07.087Z,54.24
2018-06-20T09:14:07.340Z,51.53
2018-06-20T09:15:07.595Z,51.04
2018-06-20T09:16:07.847Z,52.73
2018-06-20T09:17:08.101Z,54.96
2018-06-20T09:18:08.344Z,62.04
2018-06-20T09:19:08.591Z,63.26
2018-06-20T09:20:08.843Z,62.39
2018-06-20T09:21:09.100Z,64.11
2018-06-20T09:22:09.338Z,66.11
2018-06-20T09:23:09.592Z,66.95
2018-06-20T09:24:09.841Z,64.95
2018-06-20T09:25:10.090Z,59.79
2018-06-20T09:26:10.342Z,64.59
2018-06-20T09:27:10.692Z,62.38
2018-06-20T09:28:10.955Z,62.42
2018-06-20T09:29:11.334Z,60.08
2018-06-20T09:30:11.593Z,54.60
2018-06-20T09:31:11.847Z,52.87
2018-06-20T09:32:12.100Z,50.20
2018-06-20T09:33:12.346Z,49.65
2018-06-20T09:34:12.597Z,49.31
2018-06-20T09:35:12.851Z,48.97
2018-06-20T09:36:13.102Z,49.90
2018-06-20T09:37:13.357Z,53.33
2018-06-20T09:38:13.612Z,54.94
2018-06-20T09:39:13.866Z,50.99
2018-06-20T09:40:14.118Z,53.06
2018-06-20T09:41:14.385Z,55.76
2018-06-20T09:42:14.621Z,55.35
2018-06-20T09:43:14.871Z,58.14
2018-06-20T09:44:15.127Z,54.80
2018-06-20T09:45:15.379Z,51.82
2018-06-20T09:46:15.610Z,50.61
2018-06-20T09:47:24.600Z,48.55
2018-06-20T09:48:16.257Z,47.38
2018-06-20T09:49:16.529Z,47.14
2018-06-20T09:50:16.757Z,46.15
2018-06-20T09:51:17.019Z,44.88
2018-06-20T09:52:17.241Z,44.33
2018-06-20T09:53:17.489Z,44.08
2018-06-20T09:54:17.778Z,46.33
2018-06-20T09:55:17.998Z,48.19
2018-06-20T09:56:18.241Z,48.48
2018-06-20T09:57:18.489Z,50.46
2018-06-20T09:58:18.753Z,51.46
2018-06-20T09:59:18.989Z,54.52
2018-06-20T10:00:19.232Z,57.59
2018-06-20T10:01:19.490Z,60.15
2018-06-20T10:02:19.753Z,60.64
2018-06-20T10:03:19.998Z,59.18
2018-06-20T10:04:20.251Z,55.55
2018-06-20T10:05:20.506Z,54.10
2018-06-20T10:06:20.769Z,50.85
2018-06-20T10:07:21.022Z,53.38
2018-06-20T10:08:21.255Z,56.00
2018-06-20T10:09:21.513Z,59.51
2018-06-20T10:10:21.751Z,62.84
2018-06-20T10:11:21.996Z,63.39
2018-06-20T10:12:22.251Z,61.55
2018-06-20T10:13:22.510Z,62.62
2018-06-20T10:14:22.751Z,59.39
2018-06-20T10:15:22.990Z,54.90
2018-06-20T10:16:23.241Z,50.71
2018-06-20T10:17:23.493Z,48.14
2018-06-20T10:18:23.744Z,46.57
2018-06-20T10:19:24.014Z,46.40
2018-06-20T10:20:24.245Z,45.81
2018-06-20T10:21:24.508Z,46.79
2018-06-20T10:22:24.759Z,48.31
2018-06-20T10:23:25.014Z,49.80
2018-06-20T10:24:25.246Z,49.04
2018-06-20T10:25:25.522Z,49.10
2018-06-20T10:26:25.771Z,51.41
2018-06-20T10:27:26.029Z,53.21
2018-06-20T10:28:26.329Z,54.19
2018-06-20T10:29:26.535Z,51.46
2018-06-20T10:30:26.772Z,48.58
2018-06-20T10:31:27.019Z,50.51
2018-06-20T10:32:27.280Z,53.87
2018-06-20T10:33:27.536Z,51.86
2018-06-20T10:34:27.776Z,49.22
2018-06-20T10:35:28.027Z,47.89
2018-06-20T10:36:28.281Z,50.80
2018-06-20T10:37:28.530Z,53.28
2018-06-20T10:38:28.776Z,51.29
2018-06-20T10:39:29.028Z,49.56
2018-06-20T10:40:29.278Z,48.07
2018-06-20T10:41:29.532Z,46.18
2018-06-20T10:42:30.042Z,45.47
2018-06-20T10:43:30.107Z,45.07
2018-06-20T10:44:30.368Z,44.38
2018-06-20T10:45:30.626Z,45.81
2018-06-20T10:46:30.873Z,46.60
2018-06-20T10:47:31.123Z,46.72
2018-06-20T10:48:31.362Z,45.59
2018-06-20T10:49:31.625Z,46.80
2018-06-20T10:50:31.878Z,50.70
2018-06-20T10:51:32.130Z,52.39
2018-06-20T10:52:32.373Z,50.73
2018-06-20T10:53:32.616Z,47.85
2018-06-20T10:54:32.875Z,46.06
2018-06-20T10:55:33.130Z,44.88
2018-06-20T10:56:33.391Z,43.38
2018-06-20T10:57:33.648Z,46.20
2018-06-20T10:58:33.891Z,47.21
2018-06-20T10:59:34.137Z,49.41
2018-06-20T11:00:34.410Z,50.56
2018-06-20T11:01:34.647Z,51.90
2018-06-20T11:02:34.895Z,51.29
2018-06-20T11:03:35.151Z,51.82
2018-06-20T11:04:35.401Z,50.65
2018-06-20T11:05:35.647Z,51.36
2018-06-20T11:06:35.890Z,49.43
2018-06-20T11:07:36.160Z,47.31
2018-06-20T11:08:36.399Z,47.43
2018-06-20T11:09:46.272Z,46.94
2018-06-20T11:10:36.927Z,47.24
2018-06-20T11:11:37.153Z,46.79
2018-06-20T11:12:37.404Z,45.29
2018-06-20T11:13:37.672Z,45.34
2018-06-20T11:14:37.931Z,45.52
2018-06-20T11:15:38.498Z,46.26
2018-06-20T11:16:38.591Z,46.67
2018-06-20T11:17:38.717Z,45.50
2018-06-20T11:18:38.960Z,45.20
2018-06-20T11:19:39.216Z,46.36
2018-06-20T11:20:39.461Z,46.36
2018-06-20T11:21:39.718Z,46.45
2018-06-20T11:22:39.969Z,45.42
2018-06-20T11:23:40.219Z,44.98
2018-06-20T11:24:40.474Z,46.41
2018-06-20T11:25:40.721Z,46.06
2018-06-20T11:26:40.980Z,45.15
2018-06-20T11:27:41.234Z,43.93
2018-06-20T11:28:41.481Z,43.54
2018-06-20T11:29:41.729Z,44.64
2018-06-20T11:30:41.995Z,44.15
2018-06-20T11:31:42.220Z,43.60
2018-06-20T11:32:42.488Z,42.94
2018-06-20T11:33:42.712Z,41.80
2018-06-20T11:34:42.959Z,42.41
2018-06-20T11:35:43.205Z,42.02
2018-06-20T11:36:43.458Z,40.43
2018-06-20T11:37:43.712Z,41.08
2018-06-20T11:38:43.967Z,40.03
2018-06-20T11:39:44.238Z,40.37
2018-06-20T11:40:44.531Z,40.90
2018-06-20T11:41:44.766Z,41.90
2018-06-20T11:42:45.101Z,42.10
2018-06-20T11:43:45.390Z,43.02
2018-06-20T11:44:45.720Z,45.82
2018-06-20T11:45:45.893Z,47.38
2018-06-20T11:46:46.146Z,45.17
2018-06-20T11:47:46.408Z,42.33
2018-06-20T11:48:46.661Z,42.37
2018-06-20T11:49:46.951Z,41.37
2018-06-20T11:50:47.188Z,40.37
2018-06-20T11:51:47.423Z,42.02
2018-06-20T11:52:47.680Z,43.84
2018-06-20T11:53:48.671Z,43.85
2018-06-20T11:54:48.332Z,42.91
2018-06-20T11:55:48.601Z,42.55
2018-06-20T11:56:48.861Z,43.05
2018-06-20T11:57:49.109Z,42.39
2018-06-20T11:58:49.366Z,40.69
2018-06-20T11:59:49.665Z,40.53
2018-06-20T12:00:49.933Z,38.17
2018-06-20T12:01:50.231Z,37.59
2018-06-20T12:02:50.445Z,38.24
2018-06-20T12:03:50.726Z,38.56
2018-06-20T12:04:50.980Z,39.94
2018-06-20T12:05:51.239Z,39.94
2018-06-20T12:06:51.493Z,39.01
2018-06-20T12:07:51.753Z,41.33
2018-06-20T12:08:52.008Z,40.74
2018-06-20T12:09:52.269Z,40.27
2018-06-20T12:10:52.520Z,41.16
2018-06-20T12:11:52.776Z,41.03
2018-06-20T12:12:53.031Z,40.16
2018-06-20T12:13:53.276Z,40.29
2018-06-20T12:14:53.524Z,39.80
2018-06-20T12:15:53.770Z,39.58
2018-06-20T12:16:54.019Z,40.13
2018-06-20T12:17:54.270Z,40.86
2018-06-20T12:18:54.527Z,41.23
2018-06-20T12:19:54.779Z,40.95
2018-06-20T12:20:55.030Z,40.90
2018-06-20T12:21:55.297Z,39.42
2018-06-20T12:22:55.535Z,37.40
2018-06-20T12:23:55.788Z,37.02
2018-06-20T12:24:56.062Z,35.84
2018-06-20T12:25:56.294Z,35.17
2018-06-20T12:26:56.531Z,36.02
2018-06-20T12:27:56.826Z,36.26
2018-06-20T12:28:57.052Z,38.74
2018-06-20T12:29:57.420Z,38.32
2018-06-20T12:30:57.666Z,40.41
2018-06-20T12:31:57.932Z,42.66
2018-06-20T12:32:58.174Z,45.02
2018-06-20T12:33:58.456Z,45.14
2018-06-20T12:34:58.741Z,43.73
2018-06-20T12:35:58.946Z,42.52
2018-06-20T12:36:59.202Z,41.82
2018-06-20T12:37:59.467Z,40.55
2018-06-20T12:38:59.713Z,40.53
2018-06-20T12:39:59.980Z,42.04
2018-06-20T12:41:00.230Z,41.06
2018-06-20T12:42:00.465Z,39.80
2018-06-20T12:43:00.722Z,39.80
2018-06-20T12:44:00.989Z,38.24
2018-06-20T12:45:01.222Z,39.70
2018-06-20T12:46:01.465Z,38.70
2018-06-20T12:47:01.769Z,39.56
2018-06-20T12:48:01.977Z,42.15
2018-06-20T12:49:02.221Z,42.46
2018-06-20T12:50:02.489Z,44.46
2018-06-20T12:51:02.762Z,42.05
2018-06-20T12:52:03.015Z,41.45
2018-06-20T12:53:03.243Z,40.19
2018-06-20T12:54:03.499Z,38.84
2018-06-20T12:55:03.757Z,38.78
2018-06-20T12:56:04.006Z,39.00
2018-06-20T12:57:04.266Z,39.29
2018-06-20T12:58:04.534Z,40.76
2018-06-20T12:59:04.785Z,39.31
2018-06-20T13:00:05.052Z,39.66
2018-06-20T13:01:05.314Z,42.21
2018-06-20T13:02:05.567Z,44.20
2018-06-20T13:03:05.822Z,44.98
2018-06-20T13:04:06.120Z,44.27
2018-06-20T13:05:06.364Z,42.58
2018-06-20T13:06:06.599Z,44.03